sensor_id;sensor_type;location;lat;lon;timestamp;P1;durP1;ratioP1;P2;durP2;ratioP2
10645;SDS011;5371;49.782;9.932;2022-08-11T00:00:33;5.60;;;3.40;;
10645;SDS011;5371;49.782;9.932;2022-08-11T00:03:04;4.47;;;3.40;;
10645;SDS011;5371;49.782;9.932;2022-08-11T00:05:38;4.38;;;3.15;;
10645;SDS011;5371;49.782;9.932;2022-08-11T00:08:11;4.07;;;3.05;;
10645;SDS011;5371;49.782;9.932;2022-08-11T00:10:52;4.15;;;3.20;;
10645;SDS011;5371;49.782;9.932;2022-08-11T00:13:22;5.38;;;3.00;;
10645;SDS011;5371;49.782;9.932;2022-08-11T00:15:58;5.65;;;2.92;;
10645;SDS011;5371;49.782;9.932;2022-08-11T00:18:25;4.63;;;3.20;;
10645;SDS011;5371;49.782;9.932;2022-08-11T00:20:57;5.07;;;3.13;;
10645;SDS011;5371;49.782;9.932;2022-08-11T00:23:26;4.32;;;3.00;;
10645;SDS011;5371;49.782;9.932;2022-08-11T00:25:54;4.97;;;3.05;;
10645;SDS011;5371;49.782;9.932;2022-08-11T00:28:24;3.28;;;2.95;;
10645;SDS011;5371;49.782;9.932;2022-08-11T00:30:53;4.43;;;3.13;;
10645;SDS011;5371;49.782;9.932;2022-08-11T00:33:22;5.60;;;3.20;;
10645;SDS011;5371;49.782;9.932;2022-08-11T00:35:58;6.85;;;2.92;;
10645;SDS011;5371;49.782;9.932;2022-08-11T00:38:28;5.10;;;3.40;;
10645;SDS011;5371;49.782;9.932;2022-08-11T00:41:00;6.85;;;3.25;;
10645;SDS011;5371;49.782;9.932;2022-08-11T00:43:48;4.20;;;3.00;;
10645;SDS011;5371;49.782;9.932;2022-08-11T00:46:34;7.28;;;3.30;;
10645;SDS011;5371;49.782;9.932;2022-08-11T00:49:12;3.60;;;3.15;;
10645;SDS011;5371;49.782;9.932;2022-08-11T00:51:52;3.97;;;3.00;;
10645;SDS011;5371;49.782;9.932;2022-08-11T00:54:48;5.10;;;3.28;;
10645;SDS011;5371;49.782;9.932;2022-08-11T01:00:33;4.30;;;3.42;;
10645;SDS011;5371;49.782;9.932;2022-08-11T01:03:17;4.03;;;3.20;;
10645;SDS011;5371;49.782;9.932;2022-08-11T01:05:55;9.15;;;3.63;;
10645;SDS011;5371;49.782;9.932;2022-08-11T01:08:41;3.03;;;2.72;;
10645;SDS011;5371;49.782;9.932;2022-08-11T01:11:33;4.25;;;3.38;;
10645;SDS011;5371;49.782;9.932;2022-08-11T01:14:23;3.85;;;3.30;;
10645;SDS011;5371;49.782;9.932;2022-08-11T01:20:13;7.15;;;3.38;;
10645;SDS011;5371;49.782;9.932;2022-08-11T01:29:33;3.85;;;2.85;;
10645;SDS011;5371;49.782;9.932;2022-08-11T01:36:05;5.40;;;3.08;;
10645;SDS011;5371;49.782;9.932;2022-08-11T01:45:57;4.85;;;3.25;;
10645;SDS011;5371;49.782;9.932;2022-08-11T01:48:33;5.40;;;3.05;;
10645;SDS011;5371;49.782;9.932;2022-08-11T01:51:16;3.47;;;2.90;;
10645;SDS011;5371;49.782;9.932;2022-08-11T01:53:52;3.70;;;3.17;;
10645;SDS011;5371;49.782;9.932;2022-08-11T01:56:29;5.78;;;3.25;;
10645;SDS011;5371;49.782;9.932;2022-08-11T01:59:09;7.63;;;3.28;;
10645;SDS011;5371;49.782;9.932;2022-08-11T02:01:52;6.68;;;3.58;;
10645;SDS011;5371;49.782;9.932;2022-08-11T02:04:39;7.38;;;3.50;;
10645;SDS011;5371;49.782;9.932;2022-08-11T02:07:16;4.32;;;3.38;;
10645;SDS011;5371;49.782;9.932;2022-08-11T02:09:52;5.13;;;2.97;;
10645;SDS011;5371;49.782;9.932;2022-08-11T02:12:49;7.18;;;3.58;;
10645;SDS011;5371;49.782;9.932;2022-08-11T02:15:22;5.18;;;3.40;;
10645;SDS011;5371;49.782;9.932;2022-08-11T02:18:03;5.65;;;3.20;;
10645;SDS011;5371;49.782;9.932;2022-08-11T02:20:42;3.70;;;3.28;;
10645;SDS011;5371;49.782;9.932;2022-08-11T02:23:39;6.13;;;3.40;;
10645;SDS011;5371;49.782;9.932;2022-08-11T02:26:17;5.03;;;3.45;;
10645;SDS011;5371;49.782;9.932;2022-08-11T02:28:52;4.03;;;3.28;;
10645;SDS011;5371;49.782;9.932;2022-08-11T02:31:39;4.43;;;3.47;;
10645;SDS011;5371;49.782;9.932;2022-08-11T02:34:31;4.25;;;3.53;;
10645;SDS011;5371;49.782;9.932;2022-08-11T02:37:09;4.97;;;3.58;;
10645;SDS011;5371;49.782;9.932;2022-08-11T02:39:50;5.00;;;3.10;;
10645;SDS011;5371;49.782;9.932;2022-08-11T02:42:30;8.50;;;3.70;;
10645;SDS011;5371;49.782;9.932;2022-08-11T02:45:05;3.95;;;3.55;;
10645;SDS011;5371;49.782;9.932;2022-08-11T02:47:46;4.75;;;3.55;;
10645;SDS011;5371;49.782;9.932;2022-08-11T02:50:39;5.68;;;3.70;;
10645;SDS011;5371;49.782;9.932;2022-08-11T02:53:15;3.67;;;3.38;;
10645;SDS011;5371;49.782;9.932;2022-08-11T02:56:00;4.30;;;3.50;;
10645;SDS011;5371;49.782;9.932;2022-08-11T02:58:37;5.32;;;3.40;;
10645;SDS011;5371;49.782;9.932;2022-08-11T03:01:39;3.72;;;3.35;;
10645;SDS011;5371;49.782;9.932;2022-08-11T03:04:16;3.85;;;3.30;;
10645;SDS011;5371;49.782;9.932;2022-08-11T03:06:56;5.88;;;3.75;;
10645;SDS011;5371;49.782;9.932;2022-08-11T03:09:39;4.13;;;3.47;;
10645;SDS011;5371;49.782;9.932;2022-08-11T03:12:18;6.03;;;3.67;;
10645;SDS011;5371;49.782;9.932;2022-08-11T03:15:09;3.90;;;3.42;;
10645;SDS011;5371;49.782;9.932;2022-08-11T03:18:02;5.60;;;3.85;;
10645;SDS011;5371;49.782;9.932;2022-08-11T03:20:44;5.47;;;3.53;;
10645;SDS011;5371;49.782;9.932;2022-08-11T03:23:22;6.38;;;3.22;;
10645;SDS011;5371;49.782;9.932;2022-08-11T03:25:57;6.13;;;3.67;;
10645;SDS011;5371;49.782;9.932;2022-08-11T03:28:35;4.72;;;3.70;;
10645;SDS011;5371;49.782;9.932;2022-08-11T03:31:17;5.40;;;3.63;;
10645;SDS011;5371;49.782;9.932;2022-08-11T03:33:56;3.97;;;3.50;;
10645;SDS011;5371;49.782;9.932;2022-08-11T03:39:21;5.85;;;3.83;;
10645;SDS011;5371;49.782;9.932;2022-08-11T03:42:00;4.53;;;3.50;;
10645;SDS011;5371;49.782;9.932;2022-08-11T03:44:46;3.80;;;3.50;;
10645;SDS011;5371;49.782;9.932;2022-08-11T03:47:30;5.78;;;4.20;;
10645;SDS011;5371;49.782;9.932;2022-08-11T03:50:06;6.25;;;3.97;;
10645;SDS011;5371;49.782;9.932;2022-08-11T03:52:52;6.22;;;3.97;;
10645;SDS011;5371;49.782;9.932;2022-08-11T03:55:38;5.10;;;3.60;;
10645;SDS011;5371;49.782;9.932;2022-08-11T04:11:16;5.85;;;3.85;;
10645;SDS011;5371;49.782;9.932;2022-08-11T04:14:09;4.43;;;3.78;;
10645;SDS011;5371;49.782;9.932;2022-08-11T04:20:15;4.80;;;3.90;;
10645;SDS011;5371;49.782;9.932;2022-08-11T04:26:05;5.53;;;3.90;;
10645;SDS011;5371;49.782;9.932;2022-08-11T04:28:54;6.75;;;3.72;;
10645;SDS011;5371;49.782;9.932;2022-08-11T04:31:35;4.15;;;3.70;;
10645;SDS011;5371;49.782;9.932;2022-08-11T04:34:11;7.10;;;4.32;;
10645;SDS011;5371;49.782;9.932;2022-08-11T04:37:10;5.55;;;3.88;;
10645;SDS011;5371;49.782;9.932;2022-08-11T04:43:20;4.85;;;4.10;;
10645;SDS011;5371;49.782;9.932;2022-08-11T04:46:14;5.20;;;4.10;;
10645;SDS011;5371;49.782;9.932;2022-08-11T04:52:26;6.53;;;4.20;;
10645;SDS011;5371;49.782;9.932;2022-08-11T04:55:45;6.65;;;3.97;;
10645;SDS011;5371;49.782;9.932;2022-08-11T04:58:54;6.80;;;4.15;;
10645;SDS011;5371;49.782;9.932;2022-08-11T05:02:05;4.65;;;4.00;;
10645;SDS011;5371;49.782;9.932;2022-08-11T05:04:50;7.35;;;4.13;;
10645;SDS011;5371;49.782;9.932;2022-08-11T05:11:15;8.80;;;3.85;;
10645;SDS011;5371;49.782;9.932;2022-08-11T05:14:05;5.10;;;3.83;;
10645;SDS011;5371;49.782;9.932;2022-08-11T05:17:11;6.28;;;4.10;;
10645;SDS011;5371;49.782;9.932;2022-08-11T05:19:58;7.05;;;4.20;;
10645;SDS011;5371;49.782;9.932;2022-08-11T05:22:46;5.03;;;4.18;;
10645;SDS011;5371;49.782;9.932;2022-08-11T05:25:33;6.45;;;4.13;;
10645;SDS011;5371;49.782;9.932;2022-08-11T05:28:26;7.70;;;3.97;;
10645;SDS011;5371;49.782;9.932;2022-08-11T05:31:14;7.45;;;4.25;;
10645;SDS011;5371;49.782;9.932;2022-08-11T05:34:02;6.78;;;4.47;;
10645;SDS011;5371;49.782;9.932;2022-08-11T05:36:56;7.18;;;3.75;;
10645;SDS011;5371;49.782;9.932;2022-08-11T05:39:37;5.72;;;4.10;;
10645;SDS011;5371;49.782;9.932;2022-08-11T05:42:28;10.98;;;4.40;;
10645;SDS011;5371;49.782;9.932;2022-08-11T05:45:17;4.53;;;4.03;;
10645;SDS011;5371;49.782;9.932;2022-08-11T05:48:04;7.55;;;4.55;;
10645;SDS011;5371;49.782;9.932;2022-08-11T05:50:49;7.32;;;4.28;;
10645;SDS011;5371;49.782;9.932;2022-08-11T05:53:47;12.90;;;4.63;;
10645;SDS011;5371;49.782;9.932;2022-08-11T05:56:41;8.18;;;4.60;;
10645;SDS011;5371;49.782;9.932;2022-08-11T05:59:13;7.13;;;4.53;;
10645;SDS011;5371;49.782;9.932;2022-08-11T06:01:46;8.15;;;4.40;;
10645;SDS011;5371;49.782;9.932;2022-08-11T06:04:16;15.55;;;4.72;;
10645;SDS011;5371;49.782;9.932;2022-08-11T06:06:50;9.80;;;4.80;;
10645;SDS011;5371;49.782;9.932;2022-08-11T06:09:25;8.75;;;4.57;;
10645;SDS011;5371;49.782;9.932;2022-08-11T06:11:55;11.50;;;5.05;;
10645;SDS011;5371;49.782;9.932;2022-08-11T06:14:26;14.23;;;4.60;;
10645;SDS011;5371;49.782;9.932;2022-08-11T06:16:59;11.27;;;5.32;;
10645;SDS011;5371;49.782;9.932;2022-08-11T06:19:31;10.02;;;5.25;;
10645;SDS011;5371;49.782;9.932;2022-08-11T06:22:01;12.27;;;5.63;;
10645;SDS011;5371;49.782;9.932;2022-08-11T06:24:30;9.05;;;5.00;;
10645;SDS011;5371;49.782;9.932;2022-08-11T06:26:58;9.32;;;5.70;;
10645;SDS011;5371;49.782;9.932;2022-08-11T06:29:26;10.45;;;5.03;;
10645;SDS011;5371;49.782;9.932;2022-08-11T06:31:57;11.02;;;4.90;;
10645;SDS011;5371;49.782;9.932;2022-08-11T06:34:30;13.88;;;5.05;;
10645;SDS011;5371;49.782;9.932;2022-08-11T06:37:12;11.30;;;5.15;;
10645;SDS011;5371;49.782;9.932;2022-08-11T06:39:47;8.65;;;4.65;;
10645;SDS011;5371;49.782;9.932;2022-08-11T06:42:27;6.30;;;4.60;;
10645;SDS011;5371;49.782;9.932;2022-08-11T06:45:13;7.65;;;4.18;;
10645;SDS011;5371;49.782;9.932;2022-08-11T06:47:51;8.52;;;4.57;;
10645;SDS011;5371;49.782;9.932;2022-08-11T06:50:20;7.57;;;4.00;;
10645;SDS011;5371;49.782;9.932;2022-08-11T06:53:06;8.88;;;4.40;;
10645;SDS011;5371;49.782;9.932;2022-08-11T06:55:38;6.82;;;4.15;;
10645;SDS011;5371;49.782;9.932;2022-08-11T06:58:25;6.82;;;4.00;;
10645;SDS011;5371;49.782;9.932;2022-08-11T07:01:13;9.60;;;4.25;;
10645;SDS011;5371;49.782;9.932;2022-08-11T07:03:55;8.35;;;4.47;;
10645;SDS011;5371;49.782;9.932;2022-08-11T07:06:33;8.55;;;4.30;;
10645;SDS011;5371;49.782;9.932;2022-08-11T07:09:39;7.57;;;3.97;;
10645;SDS011;5371;49.782;9.932;2022-08-11T07:12:47;11.35;;;4.38;;
10645;SDS011;5371;49.782;9.932;2022-08-11T07:15:36;5.05;;;3.70;;
10645;SDS011;5371;49.782;9.932;2022-08-11T07:18:07;8.90;;;3.60;;
10645;SDS011;5371;49.782;9.932;2022-08-11T07:21:06;5.88;;;3.88;;
10645;SDS011;5371;49.782;9.932;2022-08-11T07:23:53;5.68;;;3.60;;
10645;SDS011;5371;49.782;9.932;2022-08-11T07:26:39;4.40;;;3.65;;
10645;SDS011;5371;49.782;9.932;2022-08-11T07:29:31;8.18;;;3.60;;
10645;SDS011;5371;49.782;9.932;2022-08-11T07:31:59;7.72;;;3.60;;
10645;SDS011;5371;49.782;9.932;2022-08-11T07:34:35;5.90;;;3.50;;
10645;SDS011;5371;49.782;9.932;2022-08-11T07:37:09;5.10;;;3.50;;
10645;SDS011;5371;49.782;9.932;2022-08-11T07:39:42;4.25;;;3.28;;
10645;SDS011;5371;49.782;9.932;2022-08-11T07:42:12;7.60;;;3.45;;
10645;SDS011;5371;49.782;9.932;2022-08-11T07:44:41;8.63;;;3.80;;
10645;SDS011;5371;49.782;9.932;2022-08-11T07:47:29;5.38;;;3.60;;
10645;SDS011;5371;49.782;9.932;2022-08-11T07:50:16;5.60;;;3.40;;
10645;SDS011;5371;49.782;9.932;2022-08-11T07:53:03;5.53;;;3.50;;
10645;SDS011;5371;49.782;9.932;2022-08-11T07:55:31;5.60;;;3.47;;
10645;SDS011;5371;49.782;9.932;2022-08-11T07:57:59;5.25;;;3.28;;
10645;SDS011;5371;49.782;9.932;2022-08-11T08:00:47;7.50;;;3.50;;
10645;SDS011;5371;49.782;9.932;2022-08-11T08:03:34;6.20;;;3.13;;
10645;SDS011;5371;49.782;9.932;2022-08-11T08:06:20;8.85;;;3.20;;
10645;SDS011;5371;49.782;9.932;2022-08-11T08:09:08;5.47;;;3.25;;
10645;SDS011;5371;49.782;9.932;2022-08-11T08:11:54;7.20;;;3.40;;
10645;SDS011;5371;49.782;9.932;2022-08-11T08:14:41;6.15;;;3.50;;
10645;SDS011;5371;49.782;9.932;2022-08-11T08:17:26;6.47;;;3.35;;
10645;SDS011;5371;49.782;9.932;2022-08-11T08:20:12;6.15;;;3.50;;
10645;SDS011;5371;49.782;9.932;2022-08-11T08:22:42;4.70;;;3.00;;
10645;SDS011;5371;49.782;9.932;2022-08-11T08:25:16;3.47;;;2.72;;
10645;SDS011;5371;49.782;9.932;2022-08-11T08:27:48;6.38;;;3.10;;
10645;SDS011;5371;49.782;9.932;2022-08-11T08:30:15;4.97;;;2.80;;
10645;SDS011;5371;49.782;9.932;2022-08-11T08:33:04;5.50;;;3.33;;
10645;SDS011;5371;49.782;9.932;2022-08-11T08:35:35;5.68;;;3.13;;
10645;SDS011;5371;49.782;9.932;2022-08-11T08:38:08;4.40;;;2.80;;
10645;SDS011;5371;49.782;9.932;2022-08-11T08:40:40;4.57;;;2.85;;
10645;SDS011;5371;49.782;9.932;2022-08-11T08:43:10;3.45;;;2.67;;
10645;SDS011;5371;49.782;9.932;2022-08-11T08:45:42;7.80;;;3.10;;
10645;SDS011;5371;49.782;9.932;2022-08-11T08:48:10;4.32;;;2.90;;
10645;SDS011;5371;49.782;9.932;2022-08-11T08:50:42;5.38;;;3.20;;
10645;SDS011;5371;49.782;9.932;2022-08-11T08:53:34;7.95;;;3.00;;
10645;SDS011;5371;49.782;9.932;2022-08-11T08:56:07;4.00;;;2.97;;
10645;SDS011;5371;49.782;9.932;2022-08-11T08:58:37;4.25;;;2.97;;
10645;SDS011;5371;49.782;9.932;2022-08-11T09:01:09;4.35;;;3.20;;
10645;SDS011;5371;49.782;9.932;2022-08-11T09:03:42;6.57;;;3.05;;
10645;SDS011;5371;49.782;9.932;2022-08-11T09:06:12;6.10;;;3.13;;
10645;SDS011;5371;49.782;9.932;2022-08-11T09:08:44;3.42;;;3.10;;
10645;SDS011;5371;49.782;9.932;2022-08-11T09:11:19;6.10;;;3.20;;
10645;SDS011;5371;49.782;9.932;2022-08-11T09:14:11;6.10;;;3.03;;
10645;SDS011;5371;49.782;9.932;2022-08-11T09:16:39;3.60;;;3.30;;
10645;SDS011;5371;49.782;9.932;2022-08-11T09:19:08;5.45;;;3.10;;
10645;SDS011;5371;49.782;9.932;2022-08-11T09:21:43;4.18;;;3.05;;
10645;SDS011;5371;49.782;9.932;2022-08-11T09:24:38;7.57;;;3.28;;
10645;SDS011;5371;49.782;9.932;2022-08-11T09:27:27;5.72;;;3.22;;
10645;SDS011;5371;49.782;9.932;2022-08-11T09:29:58;18.05;;;3.83;;
10645;SDS011;5371;49.782;9.932;2022-08-11T09:32:30;4.00;;;3.20;;
10645;SDS011;5371;49.782;9.932;2022-08-11T09:34:58;5.60;;;3.28;;
10645;SDS011;5371;49.782;9.932;2022-08-11T09:37:31;4.30;;;3.10;;
10645;SDS011;5371;49.782;9.932;2022-08-11T09:40:16;4.10;;;3.20;;
10645;SDS011;5371;49.782;9.932;2022-08-11T09:43:04;7.40;;;3.13;;
10645;SDS011;5371;49.782;9.932;2022-08-11T09:45:57;5.75;;;3.20;;
10645;SDS011;5371;49.782;9.932;2022-08-11T09:48:35;4.82;;;3.10;;
10645;SDS011;5371;49.782;9.932;2022-08-11T09:51:07;6.80;;;3.20;;
10645;SDS011;5371;49.782;9.932;2022-08-11T09:53:38;3.63;;;3.17;;
10645;SDS011;5371;49.782;9.932;2022-08-11T09:56:09;4.70;;;3.08;;
10645;SDS011;5371;49.782;9.932;2022-08-11T09:58:58;7.28;;;3.22;;
10645;SDS011;5371;49.782;9.932;2022-08-11T10:01:31;5.45;;;3.10;;
10645;SDS011;5371;49.782;9.932;2022-08-11T10:04:07;4.55;;;3.03;;
10645;SDS011;5371;49.782;9.932;2022-08-11T10:06:51;6.75;;;3.08;;
10645;SDS011;5371;49.782;9.932;2022-08-11T10:09:28;3.85;;;3.30;;
10645;SDS011;5371;49.782;9.932;2022-08-11T10:12:05;4.28;;;3.08;;
10645;SDS011;5371;49.782;9.932;2022-08-11T10:14:41;5.15;;;3.13;;
10645;SDS011;5371;49.782;9.932;2022-08-11T10:17:32;4.05;;;3.03;;
10645;SDS011;5371;49.782;9.932;2022-08-11T10:20:02;5.78;;;2.80;;
10645;SDS011;5371;49.782;9.932;2022-08-11T10:22:33;2.90;;;2.70;;
10645;SDS011;5371;49.782;9.932;2022-08-11T10:25:19;6.00;;;3.00;;
10645;SDS011;5371;49.782;9.932;2022-08-11T10:28:24;4.85;;;3.28;;
10645;SDS011;5371;49.782;9.932;2022-08-11T10:30:55;5.28;;;2.83;;
10645;SDS011;5371;49.782;9.932;2022-08-11T10:33:43;3.13;;;2.83;;
10645;SDS011;5371;49.782;9.932;2022-08-11T10:36:28;3.67;;;2.75;;
10645;SDS011;5371;49.782;9.932;2022-08-11T10:38:58;3.90;;;3.00;;
10645;SDS011;5371;49.782;9.932;2022-08-11T10:41:26;4.63;;;2.97;;
10645;SDS011;5371;49.782;9.932;2022-08-11T10:44:14;4.07;;;3.17;;
10645;SDS011;5371;49.782;9.932;2022-08-11T10:46:50;4.65;;;2.92;;
10645;SDS011;5371;49.782;9.932;2022-08-11T10:49:35;4.72;;;2.63;;
10645;SDS011;5371;49.782;9.932;2022-08-11T10:52:04;4.00;;;2.92;;
10645;SDS011;5371;49.782;9.932;2022-08-11T10:54:53;3.83;;;2.80;;
10645;SDS011;5371;49.782;9.932;2022-08-11T10:57:43;3.80;;;3.00;;
10645;SDS011;5371;49.782;9.932;2022-08-11T11:00:28;6.13;;;2.70;;
10645;SDS011;5371;49.782;9.932;2022-08-11T11:02:59;4.82;;;2.78;;
10645;SDS011;5371;49.782;9.932;2022-08-11T11:05:29;4.15;;;2.90;;
10645;SDS011;5371;49.782;9.932;2022-08-11T11:08:00;4.15;;;2.50;;
10645;SDS011;5371;49.782;9.932;2022-08-11T11:10:55;2.60;;;2.40;;
10645;SDS011;5371;49.782;9.932;2022-08-11T11:13:26;6.13;;;2.80;;
10645;SDS011;5371;49.782;9.932;2022-08-11T11:16:13;4.40;;;2.40;;
10645;SDS011;5371;49.782;9.932;2022-08-11T11:19:07;4.88;;;2.30;;
10645;SDS011;5371;49.782;9.932;2022-08-11T11:21:37;3.78;;;2.60;;
10645;SDS011;5371;49.782;9.932;2022-08-11T11:24:08;3.35;;;2.30;;
10645;SDS011;5371;49.782;9.932;2022-08-11T11:26:46;4.15;;;2.42;;
10645;SDS011;5371;49.782;9.932;2022-08-11T11:32:26;5.22;;;2.45;;
10645;SDS011;5371;49.782;9.932;2022-08-11T11:35:12;5.43;;;2.70;;
10645;SDS011;5371;49.782;9.932;2022-08-11T11:38:02;4.35;;;2.60;;
10645;SDS011;5371;49.782;9.932;2022-08-11T11:40:34;4.50;;;2.63;;
10645;SDS011;5371;49.782;9.932;2022-08-11T11:43:03;4.25;;;2.50;;
10645;SDS011;5371;49.782;9.932;2022-08-11T11:45:31;3.47;;;2.50;;
10645;SDS011;5371;49.782;9.932;2022-08-11T11:47:59;3.85;;;2.67;;
10645;SDS011;5371;49.782;9.932;2022-08-11T11:50:31;3.25;;;2.60;;
10645;SDS011;5371;49.782;9.932;2022-08-11T11:53:03;2.97;;;2.67;;
10645;SDS011;5371;49.782;9.932;2022-08-11T11:55:34;2.97;;;2.47;;
10645;SDS011;5371;49.782;9.932;2022-08-11T11:58:04;3.38;;;2.22;;
10645;SDS011;5371;49.782;9.932;2022-08-11T12:00:50;3.05;;;2.50;;
10645;SDS011;5371;49.782;9.932;2022-08-11T12:03:37;5.68;;;2.55;;
10645;SDS011;5371;49.782;9.932;2022-08-11T12:06:07;3.10;;;2.33;;
10645;SDS011;5371;49.782;9.932;2022-08-11T12:08:39;3.53;;;2.30;;
10645;SDS011;5371;49.782;9.932;2022-08-11T12:11:09;3.67;;;2.70;;
10645;SDS011;5371;49.782;9.932;2022-08-11T12:13:56;5.35;;;2.40;;
10645;SDS011;5371;49.782;9.932;2022-08-11T12:16:26;4.65;;;2.70;;
10645;SDS011;5371;49.782;9.932;2022-08-11T12:18:57;2.97;;;2.55;;
10645;SDS011;5371;49.782;9.932;2022-08-11T12:21:37;5.72;;;2.60;;
10645;SDS011;5371;49.782;9.932;2022-08-11T12:24:31;3.88;;;2.70;;
10645;SDS011;5371;49.782;9.932;2022-08-11T12:27:17;5.43;;;2.80;;
10645;SDS011;5371;49.782;9.932;2022-08-11T12:29:49;2.75;;;2.50;;
10645;SDS011;5371;49.782;9.932;2022-08-11T12:32:17;4.20;;;2.50;;
10645;SDS011;5371;49.782;9.932;2022-08-11T12:34:50;5.13;;;2.50;;
10645;SDS011;5371;49.782;9.932;2022-08-11T12:37:24;4.43;;;2.30;;
10645;SDS011;5371;49.782;9.932;2022-08-11T12:39:57;3.97;;;2.83;;
10645;SDS011;5371;49.782;9.932;2022-08-11T12:42:44;3.00;;;2.30;;
10645;SDS011;5371;49.782;9.932;2022-08-11T12:45:28;3.80;;;2.60;;
10645;SDS011;5371;49.782;9.932;2022-08-11T12:48:02;3.47;;;2.33;;
10645;SDS011;5371;49.782;9.932;2022-08-11T12:50:50;4.63;;;2.75;;
10645;SDS011;5371;49.782;9.932;2022-08-11T12:53:41;3.08;;;2.30;;
10645;SDS011;5371;49.782;9.932;2022-08-11T12:56:15;3.28;;;2.40;;
10645;SDS011;5371;49.782;9.932;2022-08-11T12:59:05;2.45;;;2.25;;
10645;SDS011;5371;49.782;9.932;2022-08-11T13:01:51;3.15;;;2.42;;
10645;SDS011;5371;49.782;9.932;2022-08-11T13:04:37;5.53;;;2.35;;
10645;SDS011;5371;49.782;9.932;2022-08-11T13:07:25;5.45;;;2.40;;
10645;SDS011;5371;49.782;9.932;2022-08-11T13:09:55;4.63;;;2.45;;
10645;SDS011;5371;49.782;9.932;2022-08-11T13:12:24;4.03;;;2.53;;
10645;SDS011;5371;49.782;9.932;2022-08-11T13:15:10;4.60;;;2.53;;
10645;SDS011;5371;49.782;9.932;2022-08-11T13:17:40;4.28;;;2.63;;
10645;SDS011;5371;49.782;9.932;2022-08-11T13:20:09;4.03;;;2.33;;
10645;SDS011;5371;49.782;9.932;2022-08-11T13:22:41;6.30;;;2.80;;
10645;SDS011;5371;49.782;9.932;2022-08-11T13:25:12;4.32;;;2.30;;
10645;SDS011;5371;49.782;9.932;2022-08-11T13:27:43;4.40;;;2.40;;
10645;SDS011;5371;49.782;9.932;2022-08-11T13:30:12;3.97;;;2.70;;
10645;SDS011;5371;49.782;9.932;2022-08-11T13:32:58;4.13;;;2.40;;
10645;SDS011;5371;49.782;9.932;2022-08-11T13:35:28;3.00;;;2.40;;
10645;SDS011;5371;49.782;9.932;2022-08-11T13:38:02;3.40;;;2.40;;
10645;SDS011;5371;49.782;9.932;2022-08-11T13:40:33;5.00;;;2.58;;
10645;SDS011;5371;49.782;9.932;2022-08-11T13:43:00;3.80;;;2.70;;
10645;SDS011;5371;49.782;9.932;2022-08-11T13:45:28;3.28;;;2.30;;
10645;SDS011;5371;49.782;9.932;2022-08-11T13:47:56;3.05;;;2.40;;
10645;SDS011;5371;49.782;9.932;2022-08-11T13:50:26;4.72;;;2.30;;
10645;SDS011;5371;49.782;9.932;2022-08-11T13:53:07;3.75;;;2.30;;
10645;SDS011;5371;49.782;9.932;2022-08-11T13:55:38;3.05;;;2.20;;
10645;SDS011;5371;49.782;9.932;2022-08-11T13:58:06;2.42;;;2.08;;
10645;SDS011;5371;49.782;9.932;2022-08-11T14:00:38;4.03;;;2.20;;
10645;SDS011;5371;49.782;9.932;2022-08-11T14:03:11;6.32;;;2.60;;
10645;SDS011;5371;49.782;9.932;2022-08-11T14:05:42;3.78;;;2.10;;
10645;SDS011;5371;49.782;9.932;2022-08-11T14:08:15;3.55;;;2.38;;
10645;SDS011;5371;49.782;9.932;2022-08-11T14:10:51;6.95;;;2.30;;
10645;SDS011;5371;49.782;9.932;2022-08-11T14:13:35;2.65;;;2.20;;
10645;SDS011;5371;49.782;9.932;2022-08-11T14:16:08;4.15;;;2.20;;
10645;SDS011;5371;49.782;9.932;2022-08-11T14:18:41;3.70;;;2.40;;
10645;SDS011;5371;49.782;9.932;2022-08-11T14:21:15;4.63;;;2.40;;
10645;SDS011;5371;49.782;9.932;2022-08-11T14:24:02;2.40;;;2.20;;
10645;SDS011;5371;49.782;9.932;2022-08-11T14:26:35;3.55;;;2.47;;
10645;SDS011;5371;49.782;9.932;2022-08-11T14:29:08;3.45;;;2.42;;
10645;SDS011;5371;49.782;9.932;2022-08-11T14:31:39;2.80;;;2.58;;
10645;SDS011;5371;49.782;9.932;2022-08-11T14:34:11;4.60;;;2.45;;
10645;SDS011;5371;49.782;9.932;2022-08-11T14:36:43;4.00;;;2.20;;
10645;SDS011;5371;49.782;9.932;2022-08-11T14:39:17;6.10;;;2.30;;
10645;SDS011;5371;49.782;9.932;2022-08-11T14:41:51;2.60;;;2.40;;
10645;SDS011;5371;49.782;9.932;2022-08-11T14:44:40;3.25;;;2.08;;
10645;SDS011;5371;49.782;9.932;2022-08-11T14:47:46;3.60;;;2.30;;
10645;SDS011;5371;49.782;9.932;2022-08-11T14:50:18;3.17;;;2.25;;
10645;SDS011;5371;49.782;9.932;2022-08-11T14:52:51;3.10;;;2.10;;
10645;SDS011;5371;49.782;9.932;2022-08-11T14:55:23;4.70;;;2.28;;
10645;SDS011;5371;49.782;9.932;2022-08-11T14:58:19;3.20;;;2.33;;
10645;SDS011;5371;49.782;9.932;2022-08-11T15:00:49;2.85;;;2.10;;
10645;SDS011;5371;49.782;9.932;2022-08-11T15:03:25;5.45;;;2.30;;
10645;SDS011;5371;49.782;9.932;2022-08-11T15:05:55;4.40;;;2.50;;
10645;SDS011;5371;49.782;9.932;2022-08-11T15:08:27;5.68;;;2.20;;
10645;SDS011;5371;49.782;9.932;2022-08-11T15:11:14;2.40;;;2.20;;
10645;SDS011;5371;49.782;9.932;2022-08-11T15:14:09;5.97;;;2.50;;
10645;SDS011;5371;49.782;9.932;2022-08-11T15:16:58;2.97;;;2.40;;
10645;SDS011;5371;49.782;9.932;2022-08-11T15:19:38;4.88;;;2.38;;
10645;SDS011;5371;49.782;9.932;2022-08-11T15:22:32;4.68;;;2.30;;
10645;SDS011;5371;49.782;9.932;2022-08-11T15:25:17;2.53;;;2.30;;
10645;SDS011;5371;49.782;9.932;2022-08-11T15:27:47;4.75;;;2.33;;
10645;SDS011;5371;49.782;9.932;2022-08-11T15:30:43;3.35;;;2.40;;
10645;SDS011;5371;49.782;9.932;2022-08-11T15:33:30;4.72;;;2.35;;
10645;SDS011;5371;49.782;9.932;2022-08-11T15:36:17;3.00;;;2.20;;
10645;SDS011;5371;49.782;9.932;2022-08-11T15:39:05;6.05;;;2.30;;
10645;SDS011;5371;49.782;9.932;2022-08-11T15:41:40;4.22;;;2.40;;
10645;SDS011;5371;49.782;9.932;2022-08-11T15:44:32;3.50;;;2.20;;
10645;SDS011;5371;49.782;9.932;2022-08-11T15:47:22;3.25;;;2.30;;
10645;SDS011;5371;49.782;9.932;2022-08-11T15:49:53;2.80;;;2.15;;
10645;SDS011;5371;49.782;9.932;2022-08-11T15:52:26;4.00;;;2.45;;
10645;SDS011;5371;49.782;9.932;2022-08-11T15:54:57;4.60;;;2.25;;
10645;SDS011;5371;49.782;9.932;2022-08-11T15:57:27;2.53;;;2.20;;
10645;SDS011;5371;49.782;9.932;2022-08-11T16:00:13;2.92;;;2.22;;
10645;SDS011;5371;49.782;9.932;2022-08-11T16:03:01;3.80;;;2.30;;
10645;SDS011;5371;49.782;9.932;2022-08-11T16:05:47;2.30;;;2.10;;
10645;SDS011;5371;49.782;9.932;2022-08-11T16:08:19;5.50;;;2.20;;
10645;SDS011;5371;49.782;9.932;2022-08-11T16:10:49;3.63;;;2.30;;
10645;SDS011;5371;49.782;9.932;2022-08-11T16:13:21;3.55;;;2.30;;
10645;SDS011;5371;49.782;9.932;2022-08-11T16:16:09;3.75;;;2.40;;
10645;SDS011;5371;49.782;9.932;2022-08-11T16:18:44;6.72;;;2.38;;
10645;SDS011;5371;49.782;9.932;2022-08-11T16:21:25;3.58;;;2.40;;
10645;SDS011;5371;49.782;9.932;2022-08-11T16:23:56;2.72;;;2.15;;
10645;SDS011;5371;49.782;9.932;2022-08-11T16:26:26;3.22;;;2.42;;
10645;SDS011;5371;49.782;9.932;2022-08-11T16:28:57;5.15;;;2.50;;
10645;SDS011;5371;49.782;9.932;2022-08-11T16:31:27;2.85;;;2.58;;
10645;SDS011;5371;49.782;9.932;2022-08-11T16:34:01;4.55;;;2.40;;
10645;SDS011;5371;49.782;9.932;2022-08-11T16:36:29;4.80;;;2.30;;
10645;SDS011;5371;49.782;9.932;2022-08-11T16:39:16;4.93;;;2.47;;
10645;SDS011;5371;49.782;9.932;2022-08-11T16:41:51;3.63;;;2.75;;
10645;SDS011;5371;49.782;9.932;2022-08-11T16:45:03;4.20;;;2.47;;
10645;SDS011;5371;49.782;9.932;2022-08-11T16:47:48;5.60;;;2.17;;
10645;SDS011;5371;49.782;9.932;2022-08-11T16:50:18;5.47;;;2.60;;
10645;SDS011;5371;49.782;9.932;2022-08-11T16:52:45;2.97;;;2.65;;
10645;SDS011;5371;49.782;9.932;2022-08-11T16:55:13;2.58;;;2.25;;
10645;SDS011;5371;49.782;9.932;2022-08-11T16:57:41;9.15;;;2.60;;
10645;SDS011;5371;49.782;9.932;2022-08-11T17:00:28;3.17;;;2.40;;
10645;SDS011;5371;49.782;9.932;2022-08-11T17:02:57;3.45;;;2.40;;
10645;SDS011;5371;49.782;9.932;2022-08-11T17:05:48;3.13;;;2.20;;
10645;SDS011;5371;49.782;9.932;2022-08-11T17:08:36;5.22;;;2.45;;
10645;SDS011;5371;49.782;9.932;2022-08-11T17:11:26;2.50;;;2.30;;
10645;SDS011;5371;49.782;9.932;2022-08-11T17:14:15;4.60;;;2.40;;